sensor_id;sensor_type;location;lat;lon;timestamp;temperature;humidity
67820;DHT22;54618;52.018;5.576;2024-01-15T00:01:59;1.70;94.80
67820;DHT22;54618;52.018;5.576;2024-01-15T00:04:25;1.70;94.80
67820;DHT22;54618;52.018;5.576;2024-01-15T00:06:50;1.70;94.80
67820;DHT22;54618;52.018;5.576;2024-01-15T00:09:16;1.60;94.70
67820;DHT22;54618;52.018;5.576;2024-01-15T00:11:42;1.60;94.70
67820;DHT22;54618;52.018;5.576;2024-01-15T00:14:08;1.60;94.80
67820;DHT22;54618;52.018;5.576;2024-01-15T00:16:34;1.60;94.80
67820;DHT22;54618;52.018;5.576;2024-01-15T00:18:59;1.50;94.70
67820;DHT22;54618;52.018;5.576;2024-01-15T00:21:25;1.50;94.70
67820;DHT22;54618;52.018;5.576;2024-01-15T00:23:51;1.40;94.70
67820;DHT22;54618;52.018;5.576;2024-01-15T00:26:17;1.40;94.70
67820;DHT22;54618;52.018;5.576;2024-01-15T00:28:43;1.40;94.70
67820;DHT22;54618;52.018;5.576;2024-01-15T00:31:08;1.40;94.70
67820;DHT22;54618;52.018;5.576;2024-01-15T00:33:34;1.40;94.70
67820;DHT22;54618;52.018;5.576;2024-01-15T00:36:00;1.30;94.70
67820;DHT22;54618;52.018;5.576;2024-01-15T00:38:26;1.30;94.70
67820;DHT22;54618;52.018;5.576;2024-01-15T00:40:51;1.30;94.70
67820;DHT22;54618;52.018;5.576;2024-01-15T00:43:17;1.20;94.60
67820;DHT22;54618;52.018;5.576;2024-01-15T00:45:44;1.30;94.70
67820;DHT22;54618;52.018;5.576;2024-01-15T00:48:10;1.20;94.60
67820;DHT22;54618;52.018;5.576;2024-01-15T00:50:36;1.20;94.60
67820;DHT22;54618;52.018;5.576;2024-01-15T00:53:02;1.20;94.60
67820;DHT22;54618;52.018;5.576;2024-01-15T00:55:28;1.20;94.50
67820;DHT22;54618;52.018;5.576;2024-01-15T00:57:54;1.10;94.40
67820;DHT22;54618;52.018;5.576;2024-01-15T01:00:20;1.10;94.50
67820;DHT22;54618;52.018;5.576;2024-01-15T01:02:46;1.10;94.40
67820;DHT22;54618;52.018;5.576;2024-01-15T01:05:12;1.10;94.40
67820;DHT22;54618;52.018;5.576;2024-01-15T01:07:38;1.10;94.40
67820;DHT22;54618;52.018;5.576;2024-01-15T01:10:03;1.10;94.40
67820;DHT22;54618;52.018;5.576;2024-01-15T01:12:29;1.10;94.30
67820;DHT22;54618;52.018;5.576;2024-01-15T01:14:55;1.00;94.30
67820;DHT22;54618;52.018;5.576;2024-01-15T01:17:21;1.00;94.30
67820;DHT22;54618;52.018;5.576;2024-01-15T01:19:47;1.00;94.30
67820;DHT22;54618;52.018;5.576;2024-01-15T01:22:13;1.10;94.30
67820;DHT22;54618;52.018;5.576;2024-01-15T01:24:38;1.10;94.20
67820;DHT22;54618;52.018;5.576;2024-01-15T01:27:04;1.10;94.10
67820;DHT22;54618;52.018;5.576;2024-01-15T01:29:30;1.10;94.10
67820;DHT22;54618;52.018;5.576;2024-01-15T01:31:55;1.10;94.00
67820;DHT22;54618;52.018;5.576;2024-01-15T01:34:21;1.10;94.00
67820;DHT22;54618;52.018;5.576;2024-01-15T01:36:47;1.00;93.90
67820;DHT22;54618;52.018;5.576;2024-01-15T01:39:13;1.00;93.90
67820;DHT22;54618;52.018;5.576;2024-01-15T01:41:39;1.10;94.00
67820;DHT22;54618;52.018;5.576;2024-01-15T01:44:05;1.00;93.90
67820;DHT22;54618;52.018;5.576;2024-01-15T01:46:31;1.00;93.90
67820;DHT22;54618;52.018;5.576;2024-01-15T01:48:57;1.00;93.90
67820;DHT22;54618;52.018;5.576;2024-01-15T01:51:26;1.00;93.90
67820;DHT22;54618;52.018;5.576;2024-01-15T01:53:52;1.00;93.70
67820;DHT22;54618;52.018;5.576;2024-01-15T01:56:21;1.00;93.70
67820;DHT22;54618;52.018;5.576;2024-01-15T01:58:47;1.00;93.70
67820;DHT22;54618;52.018;5.576;2024-01-15T02:01:13;0.90;93.70
67820;DHT22;54618;52.018;5.576;2024-01-15T02:03:40;0.90;93.70
67820;DHT22;54618;52.018;5.576;2024-01-15T02:06:07;0.90;93.70
67820;DHT22;54618;52.018;5.576;2024-01-15T02:08:34;0.90;93.70
67820;DHT22;54618;52.018;5.576;2024-01-15T02:11:00;0.80;93.70
67820;DHT22;54618;52.018;5.576;2024-01-15T02:13:25;0.80;93.70
67820;DHT22;54618;52.018;5.576;2024-01-15T02:15:51;0.80;93.70
67820;DHT22;54618;52.018;5.576;2024-01-15T02:18:17;0.80;93.70
67820;DHT22;54618;52.018;5.576;2024-01-15T02:20:42;0.80;93.90
67820;DHT22;54618;52.018;5.576;2024-01-15T02:23:14;0.80;93.70
67820;DHT22;54618;52.018;5.576;2024-01-15T02:25:45;0.80;93.70
67820;DHT22;54618;52.018;5.576;2024-01-15T02:28:14;0.90;93.70
67820;DHT22;54618;52.018;5.576;2024-01-15T02:30:41;1.00;93.70
67820;DHT22;54618;52.018;5.576;2024-01-15T02:33:07;1.00;93.60
67820;DHT22;54618;52.018;5.576;2024-01-15T02:35:34;1.10;93.50
67820;DHT22;54618;52.018;5.576;2024-01-15T02:38:02;1.10;93.40
67820;DHT22;54618;52.018;5.576;2024-01-15T02:40:28;1.20;93.40
67820;DHT22;54618;52.018;5.576;2024-01-15T02:42:53;1.20;93.40
67820;DHT22;54618;52.018;5.576;2024-01-15T02:45:19;1.30;94.00
67820;DHT22;54618;52.018;5.576;2024-01-15T02:47:45;1.30;93.50
67820;DHT22;54618;52.018;5.576;2024-01-15T02:50:11;1.30;93.60
67820;DHT22;54618;52.018;5.576;2024-01-15T02:52:36;1.30;93.50
67820;DHT22;54618;52.018;5.576;2024-01-15T02:55:02;1.30;93.50
67820;DHT22;54618;52.018;5.576;2024-01-15T02:57:27;1.30;93.30
67820;DHT22;54618;52.018;5.576;2024-01-15T02:59:56;1.30;93.30
67820;DHT22;54618;52.018;5.576;2024-01-15T03:02:22;1.30;93.40
67820;DHT22;54618;52.018;5.576;2024-01-15T03:04:47;1.40;93.40
67820;DHT22;54618;52.018;5.576;2024-01-15T03:07:13;1.40;93.20
67820;DHT22;54618;52.018;5.576;2024-01-15T03:09:39;1.30;93.40
67820;DHT22;54618;52.018;5.576;2024-01-15T03:12:05;1.30;93.10
67820;DHT22;54618;52.018;5.576;2024-01-15T03:14:30;1.30;93.20
67820;DHT22;54618;52.018;5.576;2024-01-15T03:16:56;1.30;93.20
67820;DHT22;54618;52.018;5.576;2024-01-15T03:19:25;1.20;93.20
67820;DHT22;54618;52.018;5.576;2024-01-15T03:21:50;1.20;93.30
67820;DHT22;54618;52.018;5.576;2024-01-15T03:24:16;1.20;93.30
67820;DHT22;54618;52.018;5.576;2024-01-15T03:26:42;1.10;93.40
67820;DHT22;54618;52.018;5.576;2024-01-15T03:29:07;1.10;93.50
67820;DHT22;54618;52.018;5.576;2024-01-15T03:31:33;1.10;93.40
67820;DHT22;54618;52.018;5.576;2024-01-15T03:33:58;1.10;93.40
67820;DHT22;54618;52.018;5.576;2024-01-15T03:36:24;1.00;93.40
67820;DHT22;54618;52.018;5.576;2024-01-15T03:38:50;1.00;93.50
67820;DHT22;54618;52.018;5.576;2024-01-15T03:41:15;1.00;93.50
67820;DHT22;54618;52.018;5.576;2024-01-15T03:43:41;0.90;93.50
67820;DHT22;54618;52.018;5.576;2024-01-15T03:46:07;0.90;93.50
67820;DHT22;54618;52.018;5.576;2024-01-15T03:48:32;0.90;93.50
67820;DHT22;54618;52.018;5.576;2024-01-15T03:50:58;0.80;93.50
67820;DHT22;54618;52.018;5.576;2024-01-15T03:53:24;0.80;93.50
67820;DHT22;54618;52.018;5.576;2024-01-15T03:55:50;0.80;93.50
67820;DHT22;54618;52.018;5.576;2024-01-15T03:58:16;0.90;93.50
67820;DHT22;54618;52.018;5.576;2024-01-15T04:00:42;0.90;93.60
67820;DHT22;54618;52.018;5.576;2024-01-15T04:03:08;1.00;93.60
67820;DHT22;54618;52.018;5.576;2024-01-15T04:05:33;1.00;93.60
67820;DHT22;54618;52.018;5.576;2024-01-15T04:07:59;1.00;93.80
67820;DHT22;54618;52.018;5.576;2024-01-15T04:10:25;1.10;94.40
67820;DHT22;54618;52.018;5.576;2024-01-15T04:12:50;1.20;93.70
67820;DHT22;54618;52.018;5.576;2024-01-15T04:15:16;1.30;94.50
67820;DHT22;54618;52.018;5.576;2024-01-15T04:17:42;1.40;95.30
67820;DHT22;54618;52.018;5.576;2024-01-15T04:20:08;1.40;94.20
67820;DHT22;54618;52.018;5.576;2024-01-15T04:22:35;1.50;93.90
67820;DHT22;54618;52.018;5.576;2024-01-15T04:25:01;1.50;93.60
67820;DHT22;54618;52.018;5.576;2024-01-15T04:27:27;1.50;93.70
67820;DHT22;54618;52.018;5.576;2024-01-15T04:29:56;1.40;93.40
67820;DHT22;54618;52.018;5.576;2024-01-15T04:32:22;1.40;93.50
67820;DHT22;54618;52.018;5.576;2024-01-15T04:34:47;1.40;93.50
67820;DHT22;54618;52.018;5.576;2024-01-15T04:37:16;1.30;93.50
67820;DHT22;54618;52.018;5.576;2024-01-15T04:39:41;1.30;93.50
67820;DHT22;54618;52.018;5.576;2024-01-15T04:42:07;1.30;93.50
67820;DHT22;54618;52.018;5.576;2024-01-15T04:44:32;1.30;93.50
67820;DHT22;54618;52.018;5.576;2024-01-15T04:46:58;1.20;93.50
67820;DHT22;54618;52.018;5.576;2024-01-15T04:49:24;1.20;93.50
67820;DHT22;54618;52.018;5.576;2024-01-15T04:51:52;1.10;93.60
67820;DHT22;54618;52.018;5.576;2024-01-15T04:54:18;1.10;93.70
67820;DHT22;54618;52.018;5.576;2024-01-15T04:56:44;1.00;93.70
67820;DHT22;54618;52.018;5.576;2024-01-15T04:59:10;1.00;93.70
67820;DHT22;54618;52.018;5.576;2024-01-15T05:01:36;1.00;93.70
67820;DHT22;54618;52.018;5.576;2024-01-15T05:04:02;0.90;93.70
67820;DHT22;54618;52.018;5.576;2024-01-15T05:06:28;0.90;93.70
67820;DHT22;54618;52.018;5.576;2024-01-15T05:08:56;0.90;93.90
67820;DHT22;54618;52.018;5.576;2024-01-15T05:11:22;0.90;93.80
67820;DHT22;54618;52.018;5.576;2024-01-15T05:13:48;0.90;93.80
67820;DHT22;54618;52.018;5.576;2024-01-15T05:16:14;0.90;94.00
67820;DHT22;54618;52.018;5.576;2024-01-15T05:18:39;0.90;93.80
67820;DHT22;54618;52.018;5.576;2024-01-15T05:21:05;0.90;93.70
67820;DHT22;54618;52.018;5.576;2024-01-15T05:23:34;1.00;93.70
67820;DHT22;54618;52.018;5.576;2024-01-15T05:25:59;1.00;93.70
67820;DHT22;54618;52.018;5.576;2024-01-15T05:28:25;1.00;93.60
67820;DHT22;54618;52.018;5.576;2024-01-15T05:30:51;1.10;93.60
67820;DHT22;54618;52.018;5.576;2024-01-15T05:33:17;1.10;93.70
67820;DHT22;54618;52.018;5.576;2024-01-15T05:35:43;1.10;93.60
67820;DHT22;54618;52.018;5.576;2024-01-15T05:38:09;1.20;93.80
67820;DHT22;54618;52.018;5.576;2024-01-15T05:40:34;1.20;93.60
67820;DHT22;54618;52.018;5.576;2024-01-15T05:43:00;1.20;93.50
67820;DHT22;54618;52.018;5.576;2024-01-15T05:45:30;1.20;93.70
67820;DHT22;54618;52.018;5.576;2024-01-15T05:47:56;1.20;93.50
67820;DHT22;54618;52.018;5.576;2024-01-15T05:50:21;1.20;93.70
67820;DHT22;54618;52.018;5.576;2024-01-15T05:52:47;1.20;93.40
67820;DHT22;54618;52.018;5.576;2024-01-15T05:55:13;1.20;93.40
67820;DHT22;54618;52.018;5.576;2024-01-15T05:57:39;1.20;93.40
67820;DHT22;54618;52.018;5.576;2024-01-15T06:00:05;1.20;93.70
67820;DHT22;54618;52.018;5.576;2024-01-15T06:02:31;1.20;93.50
67820;DHT22;54618;52.018;5.576;2024-01-15T06:04:56;1.20;93.60
67820;DHT22;54618;52.018;5.576;2024-01-15T06:07:22;1.30;93.80
67820;DHT22;54618;52.018;5.576;2024-01-15T06:09:48;1.30;93.80
67820;DHT22;54618;52.018;5.576;2024-01-15T06:12:14;1.30;93.70
67820;DHT22;54618;52.018;5.576;2024-01-15T06:14:40;1.30;94.00
67820;DHT22;54618;52.018;5.576;2024-01-15T06:17:07;1.40;93.90
67820;DHT22;54618;52.018;5.576;2024-01-15T06:19:32;1.40;93.70
67820;DHT22;54618;52.018;5.576;2024-01-15T06:21:58;1.40;93.70
67820;DHT22;54618;52.018;5.576;2024-01-15T06:24:26;1.40;93.70
67820;DHT22;54618;52.018;5.576;2024-01-15T06:26:52;1.40;93.60
67820;DHT22;54618;52.018;5.576;2024-01-15T06:29:18;1.40;93.60
67820;DHT22;54618;52.018;5.576;2024-01-15T06:31:44;1.40;93.60
67820;DHT22;54618;52.018;5.576;2024-01-15T06:34:09;1.40;93.60
67820;DHT22;54618;52.018;5.576;2024-01-15T06:36:35;1.40;93.70
67820;DHT22;54618;52.018;5.576;2024-01-15T06:39:00;1.40;93.70
67820;DHT22;54618;52.018;5.576;2024-01-15T06:41:26;1.40;93.80
67820;DHT22;54618;52.018;5.576;2024-01-15T06:43:52;1.40;93.80
67820;DHT22;54618;52.018;5.576;2024-01-15T06:46:21;1.40;93.90
67820;DHT22;54618;52.018;5.576;2024-01-15T06:48:47;1.30;93.90
67820;DHT22;54618;52.018;5.576;2024-01-15T06:51:12;1.30;94.00
67820;DHT22;54618;52.018;5.576;2024-01-15T06:53:38;1.40;94.00
67820;DHT22;54618;52.018;5.576;2024-01-15T06:56:04;1.40;94.10
67820;DHT22;54618;52.018;5.576;2024-01-15T06:58:31;1.40;94.10
67820;DHT22;54618;52.018;5.576;2024-01-15T07:00:56;1.40;94.10
67820;DHT22;54618;52.018;5.576;2024-01-15T07:03:24;1.40;94.10
67820;DHT22;54618;52.018;5.576;2024-01-15T07:05:50;1.40;94.10
67820;DHT22;54618;52.018;5.576;2024-01-15T07:08:15;1.40;94.10
67820;DHT22;54618;52.018;5.576;2024-01-15T07:10:41;1.40;94.20
67820;DHT22;54618;52.018;5.576;2024-01-15T07:13:06;1.40;94.30
67820;DHT22;54618;52.018;5.576;2024-01-15T07:15:32;1.40;94.30
67820;DHT22;54618;52.018;5.576;2024-01-15T07:17:58;1.40;94.30
67820;DHT22;54618;52.018;5.576;2024-01-15T07:20:26;1.40;94.30
67820;DHT22;54618;52.018;5.576;2024-01-15T07:22:52;1.40;94.30
67820;DHT22;54618;52.018;5.576;2024-01-15T07:25:17;1.40;94.30
67820;DHT22;54618;52.018;5.576;2024-01-15T07:27:43;1.40;94.30
67820;DHT22;54618;52.018;5.576;2024-01-15T07:30:11;1.40;94.30
67820;DHT22;54618;52.018;5.576;2024-01-15T07:32:37;1.40;94.40
67820;DHT22;54618;52.018;5.576;2024-01-15T07:35:03;1.40;94.40
67820;DHT22;54618;52.018;5.576;2024-01-15T07:37:28;1.40;94.40
67820;DHT22;54618;52.018;5.576;2024-01-15T07:39:57;1.40;94.40
67820;DHT22;54618;52.018;5.576;2024-01-15T07:42:26;1.40;94.30
67820;DHT22;54618;52.018;5.576;2024-01-15T07:44:51;1.40;94.40
67820;DHT22;54618;52.018;5.576;2024-01-15T07:47:17;1.40;94.50
67820;DHT22;54618;52.018;5.576;2024-01-15T07:49:43;1.40;94.60
67820;DHT22;54618;52.018;5.576;2024-01-15T07:52:10;1.40;95.10
67820;DHT22;54618;52.018;5.576;2024-01-15T07:54:36;1.40;94.80
67820;DHT22;54618;52.018;5.576;2024-01-15T07:57:02;1.40;94.70
67820;DHT22;54618;52.018;5.576;2024-01-15T07:59:31;1.40;94.60
67820;DHT22;54618;52.018;5.576;2024-01-15T08:01:59;1.40;94.60
67820;DHT22;54618;52.018;5.576;2024-01-15T08:04:28;1.40;94.50
67820;DHT22;54618;52.018;5.576;2024-01-15T08:06:56;1.40;94.50
67820;DHT22;54618;52.018;5.576;2024-01-15T08:09:22;1.50;94.50
67820;DHT22;54618;52.018;5.576;2024-01-15T08:11:48;1.50;94.50
67820;DHT22;54618;52.018;5.576;2024-01-15T08:14:14;1.50;94.50
67820;DHT22;54618;52.018;5.576;2024-01-15T08:16:40;1.50;94.50
67820;DHT22;54618;52.018;5.576;2024-01-15T08:19:06;1.50;94.40
67820;DHT22;54618;52.018;5.576;2024-01-15T08:21:31;1.50;94.40
67820;DHT22;54618;52.018;5.576;2024-01-15T08:24:01;1.50;94.90
67820;DHT22;54618;52.018;5.576;2024-01-15T08:26:28;1.50;94.50
67820;DHT22;54618;52.018;5.576;2024-01-15T08:28:56;1.50;94.50
67820;DHT22;54618;52.018;5.576;2024-01-15T08:31:22;1.50;94.50
67820;DHT22;54618;52.018;5.576;2024-01-15T08:33:48;1.60;94.50
67820;DHT22;54618;52.018;5.576;2024-01-15T08:36:14;1.60;94.50
67820;DHT22;54618;52.018;5.576;2024-01-15T08:38:39;1.60;94.50
67820;DHT22;54618;52.018;5.576;2024-01-15T08:41:05;1.60;94.50
67820;DHT22;54618;52.018;5.576;2024-01-15T08:43:31;1.60;94.30
67820;DHT22;54618;52.018;5.576;2024-01-15T08:45:57;1.60;94.80
67820;DHT22;54618;52.018;5.576;2024-01-15T08:48:23;1.60;94.50
67820;DHT22;54618;52.018;5.576;2024-01-15T08:50:53;1.60;94.60
67820;DHT22;54618;52.018;5.576;2024-01-15T08:53:22;1.60;94.50
67820;DHT22;54618;52.018;5.576;2024-01-15T08:55:48;1.70;94.50
67820;DHT22;54618;52.018;5.576;2024-01-15T08:58:14;1.70;94.50
67820;DHT22;54618;52.018;5.576;2024-01-15T09:00:40;1.70;94.60
67820;DHT22;54618;52.018;5.576;2024-01-15T09:03:05;1.70;94.50
67820;DHT22;54618;52.018;5.576;2024-01-15T09:05:31;1.80;94.50
67820;DHT22;54618;52.018;5.576;2024-01-15T09:07:57;1.80;94.40
67820;DHT22;54618;52.018;5.576;2024-01-15T09:10:26;1.90;94.30
67820;DHT22;54618;52.018;5.576;2024-01-15T09:12:51;1.90;94.20
67820;DHT22;54618;52.018;5.576;2024-01-15T09:15:17;1.90;94.10
67820;DHT22;54618;52.018;5.576;2024-01-15T09:17:43;2.00;94.40
67820;DHT22;54618;52.018;5.576;2024-01-15T09:20:09;2.00;94.10
67820;DHT22;54618;52.018;5.576;2024-01-15T09:22:37;1.90;94.10
67820;DHT22;54618;52.018;5.576;2024-01-15T09:25:04;2.00;94.20
67820;DHT22;54618;52.018;5.576;2024-01-15T09:27:30;2.10;94.30
67820;DHT22;54618;52.018;5.576;2024-01-15T09:29:56;2.20;94.20
67820;DHT22;54618;52.018;5.576;2024-01-15T09:32:21;2.30;94.10
67820;DHT22;54618;52.018;5.576;2024-01-15T09:34:47;2.20;94.10
67820;DHT22;54618;52.018;5.576;2024-01-15T09:37:14;2.10;94.10
67820;DHT22;54618;52.018;5.576;2024-01-15T09:39:40;2.00;94.20
67820;DHT22;54618;52.018;5.576;2024-01-15T09:42:06;2.00;94.10
67820;DHT22;54618;52.018;5.576;2024-01-15T09:44:32;2.00;94.10
67820;DHT22;54618;52.018;5.576;2024-01-15T09:46:58;2.00;94.10
67820;DHT22;54618;52.018;5.576;2024-01-15T09:49:25;2.00;94.20
67820;DHT22;54618;52.018;5.576;2024-01-15T09:51:51;2.00;94.20
67820;DHT22;54618;52.018;5.576;2024-01-15T09:54:17;2.00;94.30
67820;DHT22;54618;52.018;5.576;2024-01-15T09:56:46;2.10;94.40
67820;DHT22;54618;52.018;5.576;2024-01-15T09:59:18;2.30;94.30
67820;DHT22;54618;52.018;5.576;2024-01-15T10:01:45;2.50;93.90
67820;DHT22;54618;52.018;5.576;2024-01-15T10:04:14;2.60;93.70
67820;DHT22;54618;52.018;5.576;2024-01-15T10:06:44;2.60;93.50
67820;DHT22;54618;52.018;5.576;2024-01-15T10:09:13;2.50;93.50
67820;DHT22;54618;52.018;5.576;2024-01-15T10:11:42;2.50;93.50
67820;DHT22;54618;52.018;5.576;2024-01-15T10:14:12;2.40;93.60
67820;DHT22;54618;52.018;5.576;2024-01-15T10:16:41;2.40;93.70
67820;DHT22;54618;52.018;5.576;2024-01-15T10:19:10;2.30;93.80
67820;DHT22;54618;52.018;5.576;2024-01-15T10:21:38;2.30;93.80
67820;DHT22;54618;52.018;5.576;2024-01-15T10:24:04;2.30;94.00
67820;DHT22;54618;52.018;5.576;2024-01-15T10:26:31;2.30;94.10
67820;DHT22;54618;52.018;5.576;2024-01-15T10:28:58;2.60;94.20
67820;DHT22;54618;52.018;5.576;2024-01-15T10:31:27;3.00;93.90
67820;DHT22;54618;52.018;5.576;2024-01-15T10:33:53;3.30;93.20
67820;DHT22;54618;52.018;5.576;2024-01-15T10:36:18;3.30;92.70
67820;DHT22;54618;52.018;5.576;2024-01-15T10:38:45;3.40;92.70
67820;DHT22;54618;52.018;5.576;2024-01-15T10:41:11;3.60;92.60
67820;DHT22;54618;52.018;5.576;2024-01-15T10:43:37;3.90;92.10
67820;DHT22;54618;52.018;5.576;2024-01-15T10:46:03;4.00;91.60
67820;DHT22;54618;52.018;5.576;2024-01-15T10:48:29;3.90;91.50
67820;DHT22;54618;52.018;5.576;2024-01-15T10:50:56;3.60;91.70
67820;DHT22;54618;52.018;5.576;2024-01-15T10:53:23;3.30;92.20
67820;DHT22;54618;52.018;5.576;2024-01-15T10:55:49;3.10;92.60
67820;DHT22;54618;52.018;5.576;2024-01-15T10:58:16;3.00;93.00
67820;DHT22;54618;52.018;5.576;2024-01-15T11:00:44;3.00;93.30
67820;DHT22;54618;52.018;5.576;2024-01-15T11:03:10;3.00;93.50
67820;DHT22;54618;52.018;5.576;2024-01-15T11:05:41;3.10;93.50
67820;DHT22;54618;52.018;5.576;2024-01-15T11:08:07;3.10;93.40
67820;DHT22;54618;52.018;5.576;2024-01-15T11:10:45;3.10;93.50
67820;DHT22;54618;52.018;5.576;2024-01-15T11:23:57;3.40;93.00
67820;DHT22;54618;52.018;5.576;2024-01-15T11:26:36;3.50;93.00
67820;DHT22;54618;52.018;5.576;2024-01-15T11:29:04;3.40;93.00
67820;DHT22;54618;52.018;5.576;2024-01-15T11:34:16;3.30;93.30
67820;DHT22;54618;52.018;5.576;2024-01-15T11:42:01;3.20;93.40
67820;DHT22;54618;52.018;5.576;2024-01-15T11:44:28;3.20;93.50
67820;DHT22;54618;52.018;5.576;2024-01-15T11:47:09;3.10;93.50
67820;DHT22;54618;52.018;5.576;2024-01-15T11:52:34;3.10;93.80
67820;DHT22;54618;52.018;5.576;2024-01-15T11:57:51;3.30;93.70
67820;DHT22;54618;52.018;5.576;2024-01-15T12:00:17;3.40;93.40
67820;DHT22;54618;52.018;5.576;2024-01-15T12:02:44;3.40;93.30
67820;DHT22;54618;52.018;5.576;2024-01-15T12:05:12;3.50;93.30
67820;DHT22;54618;52.018;5.576;2024-01-15T12:07:48;3.50;93.10
67820;DHT22;54618;52.018;5.576;2024-01-15T12:10:18;3.40;93.00
67820;DHT22;54618;52.018;5.576;2024-01-15T12:13:10;3.30;93.20
67820;DHT22;54618;52.018;5.576;2024-01-15T12:15:36;3.30;93.10
67820;DHT22;54618;52.018;5.576;2024-01-15T12:18:02;3.30;93.00
67820;DHT22;54618;52.018;5.576;2024-01-15T12:20:32;3.30;93.20
67820;DHT22;54618;52.018;5.576;2024-01-15T12:22:59;3.40;93.20
67820;DHT22;54618;52.018;5.576;2024-01-15T12:25:29;3.30;93.10
67820;DHT22;54618;52.018;5.576;2024-01-15T12:27:55;3.30;93.20
67820;DHT22;54618;52.018;5.576;2024-01-15T12:30:21;3.20;93.50
67820;DHT22;54618;52.018;5.576;2024-01-15T12:32:47;3.20;93.10
67820;DHT22;54618;52.018;5.576;2024-01-15T12:35:14;3.30;93.60
67820;DHT22;54618;52.018;5.576;2024-01-15T12:37:41;3.30;93.40
67820;DHT22;54618;52.018;5.576;2024-01-15T12:40:08;3.40;93.30
67820;DHT22;54618;52.018;5.576;2024-01-15T12:42:36;3.30;92.90
67820;DHT22;54618;52.018;5.576;2024-01-15T12:45:02;3.20;92.90
67820;DHT22;54618;52.018;5.576;2024-01-15T12:47:30;3.00;93.10
67820;DHT22;54618;52.018;5.576;2024-01-15T12:49:56;2.80;93.40
67820;DHT22;54618;52.018;5.576;2024-01-15T12:52:22;2.60;93.80
67820;DHT22;54618;52.018;5.576;2024-01-15T12:54:51;2.70;94.10
67820;DHT22;54618;52.018;5.576;2024-01-15T12:57:17;2.70;94.10
67820;DHT22;54618;52.018;5.576;2024-01-15T12:59:46;2.80;94.30
67820;DHT22;54618;52.018;5.576;2024-01-15T13:02:13;2.70;94.00
67820;DHT22;54618;52.018;5.576;2024-01-15T13:04:39;2.60;93.90
67820;DHT22;54618;52.018;5.576;2024-01-15T13:07:05;2.60;93.90
67820;DHT22;54618;52.018;5.576;2024-01-15T13:09:32;2.50;93.60
67820;DHT22;54618;52.018;5.576;2024-01-15T13:12:00;2.40;93.50
67820;DHT22;54618;52.018;5.576;2024-01-15T13:14:26;2.40;94.00
67820;DHT22;54618;52.018;5.576;2024-01-15T13:16:52;2.40;94.10
67820;DHT22;54618;52.018;5.576;2024-01-15T13:19:19;2.50;94.00
67820;DHT22;54618;52.018;5.576;2024-01-15T13:21:47;2.50;93.80
67820;DHT22;54618;52.018;5.576;2024-01-15T13:24:13;2.50;93.80
67820;DHT22;54618;52.018;5.576;2024-01-15T13:26:39;2.50;93.90
67820;DHT22;54618;52.018;5.576;2024-01-15T13:29:05;2.50;93.80
67820;DHT22;54618;52.018;5.576;2024-01-15T13:31:34;2.50;93.80
67820;DHT22;54618;52.018;5.576;2024-01-15T13:34:00;2.50;93.80
67820;DHT22;54618;52.018;5.576;2024-01-15T13:36:28;2.50;93.80
67820;DHT22;54618;52.018;5.576;2024-01-15T13:38:57;2.50;93.80
67820;DHT22;54618;52.018;5.576;2024-01-15T13:41:27;2.50;93.80
67820;DHT22;54618;52.018;5.576;2024-01-15T13:43:54;2.50;93.60
67820;DHT22;54618;52.018;5.576;2024-01-15T13:46:22;2.50;93.70
67820;DHT22;54618;52.018;5.576;2024-01-15T13:48:48;2.60;93.80
67820;DHT22;54618;52.018;5.576;2024-01-15T13:51:14;2.60;93.70
67820;DHT22;54618;52.018;5.576;2024-01-15T13:53:40;2.70;93.70
67820;DHT22;54618;52.018;5.576;2024-01-15T13:56:06;2.70;93.60
67820;DHT22;54618;52.018;5.576;2024-01-15T13:58:32;2.70;93.50
67820;DHT22;54618;52.018;5.576;2024-01-15T14:00:59;2.70;93.50
67820;DHT22;54618;52.018;5.576;2024-01-15T14:03:27;2.70;93.50
67820;DHT22;54618;52.018;5.576;2024-01-15T14:05:56;2.70;93.50
67820;DHT22;54618;52.018;5.576;2024-01-15T14:08:22;2.70;93.60
67820;DHT22;54618;52.018;5.576;2024-01-15T14:10:47;2.70;93.60
67820;DHT22;54618;52.018;5.576;2024-01-15T14:13:13;2.70;93.60
67820;DHT22;54618;52.018;5.576;2024-01-15T14:15:39;2.70;93.60
67820;DHT22;54618;52.018;5.576;2024-01-15T14:18:05;2.70;93.60
67820;DHT22;54618;52.018;5.576;2024-01-15T14:20:31;2.70;93.70
67820;DHT22;54618;52.018;5.576;2024-01-15T14:22:56;2.70;93.60
67820;DHT22;54618;52.018;5.576;2024-01-15T14:25:22;2.70;93.70
67820;DHT22;54618;52.018;5.576;2024-01-15T14:27:48;2.70;93.70
67820;DHT22;54618;52.018;5.576;2024-01-15T14:30:14;2.70;93.80
67820;DHT22;54618;52.018;5.576;2024-01-15T14:32:41;3.00;93.90
67820;DHT22;54618;52.018;5.576;2024-01-15T14:35:08;3.20;93.40
67820;DHT22;54618;52.018;5.576;2024-01-15T14:37:39;3.20;93.30
67820;DHT22;54618;52.018;5.576;2024-01-15T14:40:05;3.20;93.30
67820;DHT22;54618;52.018;5.576;2024-01-15T14:42:33;3.10;93.30
67820;DHT22;54618;52.018;5.576;2024-01-15T14:44:59;3.10;93.40
67820;DHT22;54618;52.018;5.576;2024-01-15T14:47:28;3.00;93.50
67820;DHT22;54618;52.018;5.576;2024-01-15T14:49:57;2.90;93.30
67820;DHT22;54618;52.018;5.576;2024-01-15T14:52:23;2.80;93.50
67820;DHT22;54618;52.018;5.576;2024-01-15T14:54:49;2.80;93.30
67820;DHT22;54618;52.018;5.576;2024-01-15T14:57:15;2.80;93.30
67820;DHT22;54618;52.018;5.576;2024-01-15T14:59:40;2.80;93.50
67820;DHT22;54618;52.018;5.576;2024-01-15T15:02:06;2.70;93.60
67820;DHT22;54618;52.018;5.576;2024-01-15T15:04:32;2.60;93.70
67820;DHT22;54618;52.018;5.576;2024-01-15T15:06:58;2.60;93.80
67820;DHT22;54618;52.018;5.576;2024-01-15T15:09:26;2.60;93.80
67820;DHT22;54618;52.018;5.576;2024-01-15T15:11:52;2.50;93.90
67820;DHT22;54618;52.018;5.576;2024-01-15T15:14:18;2.50;93.90
67820;DHT22;54618;52.018;5.576;2024-01-15T15:16:44;2.50;94.00
67820;DHT22;54618;52.018;5.576;2024-01-15T15:19:12;2.50;94.00
67820;DHT22;54618;52.018;5.576;2024-01-15T15:21:37;2.50;94.10
67820;DHT22;54618;52.018;5.576;2024-01-15T15:24:03;2.40;94.10
67820;DHT22;54618;52.018;5.576;2024-01-15T15:26:29;2.30;94.10
67820;DHT22;54618;52.018;5.576;2024-01-15T15:28:55;2.30;94.20
67820;DHT22;54618;52.018;5.576;2024-01-15T15:31:20;2.20;94.20
67820;DHT22;54618;52.018;5.576;2024-01-15T15:33:46;2.20;94.30
67820;DHT22;54618;52.018;5.576;2024-01-15T15:36:11;2.10;94.40
67820;DHT22;54618;52.018;5.576;2024-01-15T15:38:37;2.00;94.40
67820;DHT22;54618;52.018;5.576;2024-01-15T15:41:03;2.00;94.40
67820;DHT22;54618;52.018;5.576;2024-01-15T15:43:29;1.90;94.50
67820;DHT22;54618;52.018;5.576;2024-01-15T15:45:56;1.90;94.50
67820;DHT22;54618;52.018;5.576;2024-01-15T15:48:23;1.80;94.60
67820;DHT22;54618;52.018;5.576;2024-01-15T15:50:50;1.80;94.60
67820;DHT22;54618;52.018;5.576;2024-01-15T15:53:18;1.80;94.70
67820;DHT22;54618;52.018;5.576;2024-01-15T15:55:46;1.80;94.70
67820;DHT22;54618;52.018;5.576;2024-01-15T15:58:13;1.90;94.70
67820;DHT22;54618;52.018;5.576;2024-01-15T16:00:39;1.90;94.70
67820;DHT22;54618;52.018;5.576;2024-01-15T16:03:05;1.90;94.70
67820;DHT22;54618;52.018;5.576;2024-01-15T16:05:30;1.90;94.60